Jacksonville, Illinois
Current Conditions -  °F | °C
As of 11:35 PM on Sunday 19 Oct 2014 (Local Time) from KIJX Reporting Station
Broken Clouds Broken Clouds  
Wind Chill: 13°   Ceiling: 9000
Heat Index: 13°   Visibility: 10mi
Dew Point:   Wind: 6mph
Humidity: 73%   Direction: 210°SSW
Pressure: 29.98"   Gusts: NA
Location:  39.75°N, 90.23°W
Report Text: KIJX 200435Z AUTO 21005KT 10SM BKN090 13/09 A2998 RMK AO2 T01330085
Loading
Personal Weather Stations






























Interactive Weather Map
Tropical Storm Tracking
New forecast layout! Learn more

10-Day Weather Forecast

Advertisements
Track Severe Weather on mobile